Time;durP1;ratioP1;P1;durP2;ratioP2;P2;SDS_P1;SDS_P2;PMS_P1;PMS_P2;Temp;Humidity;BMP_temperature;BMP_pressure;BME280_temperature;BME280_humidity;BME280_pressure;Samples;Min_cycle;Max_cycle;Signal;HPM_P1;HPM_P2
2022/06/22 00:00:38;;;;;;;0.52;0.52;;;12.10;99.90;;;;;;5035805;28;20021;-88
2022/06/22 00:03:08;;;;;;;0.20;0.20;;;12.00;99.90;;;;;;5034674;28;20018;-88
2022/06/22 00:05:49;;;;;;;0.22;0.22;;;12.00;99.90;;;;;;5028819;28;20476;-88
2022/06/22 00:08:28;;;;;;;1.23;1.08;;;12.00;99.90;;;;;;5034737;28;20025;-88
2022/06/22 00:11:13;;;;;;;0.05;0.05;;;12.00;99.90;;;;;;5034471;28;20040;-88
2022/06/22 00:13:46;;;;;;;0.57;0.57;;;12.00;99.90;;;;;;5034345;28;20040;-88
2022/06/22 00:16:31;;;;;;;0.10;0.10;;;12.00;99.90;;;;;;5034200;28;20021;-88
2022/06/22 00:18:58;;;;;;;0.25;0.25;;;12.00;99.90;;;;;;5034074;28;20057;-88
2022/06/22 00:21:30;;;;;;;0.00;0.00;;;11.90;99.90;;;;;;5034283;28;20037;-88
2022/06/22 00:23:59;;;;;;;0.10;0.10;;;11.90;99.90;;;;;;5034002;28;20025;-88
2022/06/22 00:26:25;;;;;;;0.20;0.20;;;11.90;99.90;;;;;;5034191;28;20495;-88
2022/06/22 00:28:53;;;;;;;0.20;0.20;;;11.80;99.90;;;;;;5034024;28;20030;-88
2022/06/22 00:31:57;;;;;;;0.20;0.20;;;11.80;99.90;;;;;;5034032;28;20468;-88
2022/06/22 00:34:26;;;;;;;0.68;0.68;;;11.80;99.90;;;;;;5033792;28;20063;-87
2022/06/22 00:37:06;;;;;;;0.38;0.38;;;11.90;99.90;;;;;;5034051;28;20112;-88
2022/06/22 00:39:40;;;;;;;0.10;0.10;;;11.80;99.90;;;;;;5033973;28;20025;-87
2022/06/22 00:42:14;;;;;;;0.00;0.00;;;11.80;99.90;;;;;;5034843;28;20049;-88
2022/06/22 00:44:55;;;;;;;0.43;0.43;;;11.90;99.90;;;;;;5033058;28;20037;-88
2022/06/22 00:47:24;;;;;;;0.65;0.63;;;11.90;99.90;;;;;;5033889;28;20087;-88
2022/06/22 00:49:50;;;;;;;0.30;0.10;;;11.90;99.90;;;;;;5034831;28;20106;-88
2022/06/22 00:52:25;;;;;;;0.00;0.00;;;11.80;99.90;;;;;;5033472;28;20114;-88
2022/06/22 00:54:51;;;;;;;0.08;0.08;;;11.80;99.90;;;;;;5033546;28;20056;-88
2022/06/22 00:57:26;;;;;;;0.00;0.00;;;11.80;99.90;;;;;;5033644;28;20018;-88
2022/06/22 00:59:58;;;;;;;0.15;0.15;;;11.80;99.90;;;;;;5034602;28;20024;-88
2022/06/22 01:02:37;;;;;;;0.00;0.00;;;11.80;99.90;;;;;;5033566;28;20026;-88
2022/06/22 01:05:28;;;;;;;0.08;0.08;;;11.80;99.90;;;;;;5033792;28;20029;-88
2022/06/22 01:08:12;;;;;;;0.05;0.05;;;11.70;99.90;;;;;;5034589;28;20029;-88
2022/06/22 01:10:45;;;;;;;0.40;0.40;;;11.70;99.90;;;;;;5034353;28;20468;-88
2022/06/22 01:13:16;;;;;;;0.65;0.40;;;11.70;99.90;;;;;;5034495;28;20080;-88
2022/06/22 01:16:08;;;;;;;0.30;0.15;;;11.60;99.90;;;;;;5033313;28;20030;-88
2022/06/22 01:18:44;;;;;;;0.00;0.00;;;11.60;99.90;;;;;;5033399;28;20047;-88
2022/06/22 01:21:16;;;;;;;0.25;0.25;;;11.60;99.90;;;;;;5033540;28;20372;-88
2022/06/22 01:24:09;;;;;;;0.00;0.00;;;11.60;99.90;;;;;;5034580;28;20028;-88
2022/06/22 01:26:43;;;;;;;0.00;0.00;;;11.60;99.90;;;;;;5033178;28;20029;-88
2022/06/22 01:29:21;;;;;;;0.25;0.25;;;11.60;99.90;;;;;;5033077;28;20549;-88
2022/06/22 01:32:13;;;;;;;0.00;0.00;;;11.60;99.90;;;;;;5033236;28;20109;-88
2022/06/22 01:34:45;;;;;;;0.17;0.17;;;11.60;99.90;;;;;;5032797;28;20030;-87
2022/06/22 01:37:20;;;;;;;0.20;0.20;;;11.60;99.90;;;;;;5033084;28;20029;-88
2022/06/22 01:39:46;;;;;;;0.00;0.00;;;11.50;99.90;;;;;;5034198;28;20070;-88
2022/06/22 01:42:32;;;;;;;0.25;0.20;;;11.50;99.90;;;;;;5034219;28;20100;-88
2022/06/22 01:45:18;;;;;;;0.10;0.10;;;11.50;99.90;;;;;;5032842;28;20031;-88
2022/06/22 01:48:06;;;;;;;0.10;0.05;;;11.50;99.90;;;;;;5032957;28;20029;-88
2022/06/22 01:50:48;;;;;;;0.10;0.10;;;11.50;99.90;;;;;;5033013;28;20022;-88
2022/06/22 01:53:29;;;;;;;0.77;0.77;;;11.50;99.90;;;;;;5033150;28;20049;-88
2022/06/22 01:56:14;;;;;;;0.47;0.47;;;11.60;99.90;;;;;;5033169;28;20073;-88
2022/06/22 01:58:42;;;;;;;0.10;0.10;;;11.50;99.90;;;;;;5038092;28;20022;-88
2022/06/22 02:01:21;;;;;;;0.43;0.43;;;11.50;99.90;;;;;;5036775;28;20033;-88
2022/06/22 02:04:09;;;;;;;0.08;0.08;;;11.50;99.90;;;;;;5036842;28;20029;-88
2022/06/22 02:09:52;;;;;;;0.30;0.30;;;11.50;99.90;;;;;;5038001;28;20032;-88
2022/06/22 02:12:20;;;;;;;0.00;0.00;;;11.40;99.90;;;;;;5036773;28;20043;-88
2022/06/22 02:14:52;;;;;;;0.20;0.20;;;11.40;99.90;;;;;;5036784;28;20057;-88
2022/06/22 02:17:23;;;;;;;0.32;0.32;;;11.40;99.90;;;;;;5036611;28;20079;-88
2022/06/22 02:20:14;;;;;;;0.47;0.47;;;11.40;99.90;;;;;;5036367;28;20022;-88
2022/06/22 02:22:39;;;;;;;;;;;11.30;99.90;;;;;;5036850;28;20108;-88
2022/06/22 02:25:06;;;;;;;0.28;0.28;;;11.30;99.90;;;;;;5037529;28;19967;-88
2022/06/22 02:27:32;;;;;;;0.30;0.30;;;11.30;99.90;;;;;;5036658;28;20032;-88
2022/06/22 02:29:59;;;;;;;0.57;0.38;;;11.30;99.90;;;;;;5037552;28;20029;-88
2022/06/22 02:32:31;;;;;;;0.00;0.00;;;11.30;99.90;;;;;;5036464;28;20028;-88
2022/06/22 02:34:58;;;;;;;0.40;0.40;;;11.40;99.90;;;;;;5036272;28;20107;-88
2022/06/22 02:37:28;;;;;;;0.85;0.28;;;11.40;99.90;;;;;;5036304;28;20025;-87
2022/06/22 02:40:01;;;;;;;0.00;0.00;;;11.40;99.90;;;;;;5036395;28;20022;-88
2022/06/22 02:45:14;;;;;;;0.10;0.10;;;11.60;99.90;;;;;;5037661;28;20086;-88
2022/06/22 02:47:47;;;;;;;0.75;0.63;;;11.70;99.90;;;;;;5036064;28;20383;-88
2022/06/22 02:50:13;;;;;;;0.28;0.10;;;11.80;99.90;;;;;;5035855;28;20388;-87
2022/06/22 02:52:48;;;;;;;0.35;0.35;;;11.90;99.90;;;;;;5036406;28;20030;-88
2022/06/22 02:55:17;;;;;;;0.40;0.40;;;12.00;99.90;;;;;;5035758;28;20033;-88
2022/06/22 02:58:20;;;;;;;0.57;0.57;;;12.20;99.90;;;;;;5036965;28;20476;-88
2022/06/22 03:00:46;;;;;;;0.60;0.57;;;12.30;99.90;;;;;;5035936;28;20032;-89
2022/06/22 03:03:14;;;;;;;0.20;0.20;;;12.40;99.90;;;;;;5035634;28;20017;-88
2022/06/22 03:05:43;;;;;;;1.85;0.98;;;12.50;99.90;;;;;;5035819;28;20032;-89
2022/06/22 03:08:11;;;;;;;0.00;0.00;;;12.60;99.90;;;;;;5035264;28;20395;-90
2022/06/22 03:10:55;;;;;;;0.45;0.22;;;12.70;99.90;;;;;;5035835;28;20056;-89
2022/06/22 03:13:29;;;;;;;0.00;0.00;;;12.70;99.90;;;;;;5035739;28;20029;-90
2022/06/22 03:15:56;;;;;;;0.50;0.50;;;12.80;99.90;;;;;;5035467;28;20041;-90
2022/06/22 03:18:42;;;;;;;0.43;0.43;;;12.90;99.90;;;;;;5035487;28;20087;-89
2022/06/22 03:21:12;;;;;;;0.20;0.20;;;12.90;99.90;;;;;;5035554;28;20037;-89
2022/06/22 03:23:41;;;;;;;0.63;0.20;;;13.00;99.90;;;;;;5035331;28;20029;-89
2022/06/22 03:26:20;;;;;;;0.25;0.25;;;13.10;99.90;;;;;;5035364;28;20036;-89
2022/06/22 03:29:09;;;;;;;0.73;0.73;;;13.30;99.90;;;;;;5035202;28;20049;-89
2022/06/22 03:31:53;;;;;;;0.10;0.03;;;13.40;99.90;;;;;;5031883;28;20270;-89
2022/06/22 03:34:41;;;;;;;0.65;0.65;;;13.30;99.90;;;;;;5035247;28;20029;-88
2022/06/22 03:38:01;;;;;;;0.32;0.32;;;13.50;99.90;;;;;;5035313;28;20041;-89
2022/06/22 03:40:50;;;;;;;0.00;0.00;;;13.50;99.90;;;;;;5035273;28;20120;-88
2022/06/22 03:43:31;;;;;;;0.60;0.45;;;13.70;99.90;;;;;;5031407;28;20083;-88
2022/06/22 03:46:11;;;;;;;0.43;0.43;;;13.70;99.90;;;;;;5034987;28;20492;-89
2022/06/22 03:48:50;;;;;;;0.70;0.20;;;13.80;99.90;;;;;;5034933;28;20029;-89
2022/06/22 03:51:24;;;;;;;0.13;0.13;;;13.60;99.90;;;;;;5035910;28;20026;-89
2022/06/22 03:54:12;;;;;;;0.15;0.15;;;13.70;99.90;;;;;;5035894;28;20374;-89
2022/06/22 03:56:45;;;;;;;0.65;0.65;;;13.70;99.90;;;;;;5034825;28;20033;-89
2022/06/22 03:59:12;;;;;;;0.35;0.35;;;13.60;99.90;;;;;;5035827;28;20440;-89
2022/06/22 04:01:39;;;;;;;0.47;0.47;;;13.50;99.90;;;;;;5035834;28;20021;-89
2022/06/22 04:04:05;;;;;;;0.25;0.20;;;13.60;99.90;;;;;;5034569;28;20432;-88
2022/06/22 04:06:38;;;;;;;0.00;0.00;;;13.70;99.90;;;;;;5034742;28;20059;-89
2022/06/22 04:09:13;;;;;;;1.38;0.25;;;13.80;99.90;;;;;;5034642;28;20052;-89
2022/06/22 04:11:55;;;;;;;0.20;0.20;;;13.80;99.90;;;;;;5034620;28;20056;-89
2022/06/22 04:14:41;;;;;;;0.20;0.20;;;14.00;99.90;;;;;;5034302;28;20021;-89
2022/06/22 04:17:32;;;;;;;0.20;0.20;;;14.00;99.90;;;;;;5034210;28;20032;-90
2022/06/22 04:20:02;;;;;;;0.32;0.32;;;14.10;99.90;;;;;;5033654;28;20033;-89
2022/06/22 19:25:17;;;;;;;0.15;0.15;;;12.00;99.90;;;;;;5132616;27;20387;-92
2022/06/22 19:28:14;;;;;;;1.15;0.40;;;11.80;99.90;;;;;;5131775;28;20477;-91
2022/06/22 19:31:15;;;;;;;0.10;0.10;;;11.70;99.90;;;;;;5114517;28;20023;-91
2022/06/22 19:34:18;;;;;;;0.10;0.10;;;11.80;99.90;;;;;;5131680;28;20092;-92
2022/06/22 19:37:11;;;;;;;0.15;0.15;;;11.70;99.90;;;;;;5131463;28;20016;-92
2022/06/22 19:39:58;;;;;;;0.20;0.15;;;11.80;99.90;;;;;;5113536;28;20035;-92
2022/06/22 19:42:37;;;;;;;0.63;0.35;;;11.90;99.90;;;;;;5131554;28;20114;-92
2022/06/22 19:45:24;;;;;;;0.15;0.15;;;11.70;99.90;;;;;;5131321;28;20062;-92
2022/06/22 19:48:09;;;;;;;0.10;0.10;;;11.80;99.90;;;;;;5131609;28;20026;-92
2022/06/22 19:51:04;;;;;;;0.35;0.35;;;11.70;99.90;;;;;;5114130;28;20022;-93
2022/06/22 19:54:08;;;;;;;0.45;0.38;;;12.00;99.90;;;;;;5114608;28;20034;-91
2022/06/22 19:56:43;;;;;;;0.00;0.00;;;12.10;99.90;;;;;;5131135;28;20019;-92
2022/06/22 19:59:10;;;;;;;0.52;0.52;;;12.10;99.90;;;;;;5113937;28;20403;-92
2022/06/22 20:01:41;;;;;;;0.00;0.00;;;12.10;99.90;;;;;;5113876;28;20020;-91
2022/06/22 20:04:22;;;;;;;0.15;0.15;;;12.10;99.90;;;;;;5113769;28;20023;-92
2022/06/22 20:06:59;;;;;;;0.00;0.00;;;11.90;99.90;;;;;;5130809;28;20029;-91
2022/06/22 20:09:36;;;;;;;0.52;0.52;;;12.20;99.90;;;;;;5113868;28;20024;-92
2022/06/22 20:12:26;;;;;;;0.08;0.08;;;12.00;99.90;;;;;;5113741;28;20056;-91
2022/06/22 20:15:07;;;;;;;0.55;0.55;;;12.30;99.90;;;;;;5113172;28;20035;-92
2022/06/22 20:17:47;;;;;;;0.00;0.00;;;12.30;99.90;;;;;;5130964;28;20489;-91
2022/06/22 20:20:14;;;;;;;0.10;0.10;;;12.40;99.90;;;;;;5113758;28;20584;-92
2022/06/22 20:23:16;;;;;;;0.10;0.08;;;12.20;99.90;;;;;;5113217;28;20040;-92
2022/06/22 20:25:48;;;;;;;0.00;0.00;;;12.40;99.90;;;;;;5088772;28;20396;-92
2022/06/22 20:28:35;;;;;;;0.20;0.20;;;12.40;99.90;;;;;;5130420;28;20456;-91
2022/06/22 20:31:16;;;;;;;0.10;0.10;;;12.30;99.90;;;;;;5131529;28;20428;-92
2022/06/22 20:34:36;;;;;;;0.17;0.17;;;12.30;99.90;;;;;;5113303;28;20081;-91
2022/06/22 20:37:16;;;;;;;0.10;0.10;;;12.30;99.90;;;;;;5018751;28;20415;-91
2022/06/22 20:39:47;;;;;;;0.00;0.00;;;12.20;99.90;;;;;;5090893;28;20100;-91
2022/06/22 20:42:48;;;;;;;0.20;0.20;;;12.40;99.90;;;;;;5099850;28;20035;-91
2022/06/22 20:45:44;;;;;;;0.20;0.20;;;12.20;99.90;;;;;;5099385;28;20056;-91
2022/06/22 20:48:34;;;;;;;0.03;0.03;;;12.20;99.90;;;;;;5117437;28;20020;-91
2022/06/22 20:51:08;;;;;;;0.00;0.00;;;12.20;99.90;;;;;;5116365;28;20031;-93
2022/06/22 20:53:46;;;;;;;0.88;0.88;;;12.50;99.90;;;;;;5099264;28;20084;-91
2022/06/22 20:56:36;;;;;;;0.05;0.05;;;12.20;99.90;;;;;;5099584;28;20028;-90
2022/06/22 20:59:09;;;;;;;0.88;0.40;;;12.50;99.90;;;;;;5098130;28;20027;-89
2022/06/22 21:01:35;;;;;;;0.10;0.10;;;12.20;99.90;;;;;;5098967;28;20016;-89
2022/06/22 21:04:07;;;;;;;0.10;0.10;;;12.20;99.90;;;;;;5099057;28;20030;-89
2022/06/22 21:06:38;;;;;;;0.17;0.17;;;12.30;99.90;;;;;;5099058;28;20028;-91
2022/06/22 21:09:10;;;;;;;0.10;0.10;;;12.20;99.90;;;;;;5098929;28;20473;-90
2022/06/22 21:12:14;;;;;;;0.00;0.00;;;12.10;99.90;;;;;;5098914;28;20383;-91
2022/06/22 21:15:10;;;;;;;0.00;0.00;;;12.50;99.90;;;;;;5068754;28;20093;-91
2022/06/22 21:17:40;;;;;;;0.00;0.00;;;12.40;99.90;;;;;;5098916;28;20031;-90
2022/06/22 21:20:29;;;;;;;0.40;0.40;;;12.30;99.90;;;;;;5098905;28;20057;-90
2022/06/22 21:23:23;;;;;;;0.00;0.00;;;12.60;99.90;;;;;;5059459;28;20097;-90
2022/06/22 21:26:03;;;;;;;0.73;0.70;;;12.40;99.90;;;;;;5116722;28;20016;-90
2022/06/22 21:31:30;;;;;;;0.10;0.10;;;12.70;99.90;;;;;;5117067;28;19910;-89
2022/06/22 21:33:59;;;;;;;0.32;0.32;;;12.60;99.90;;;;;;5098471;28;20474;-90
2022/06/22 21:36:46;;;;;;;0.22;0.22;;;12.50;99.90;;;;;;5098506;28;20110;-90
2022/06/22 21:39:23;;;;;;;0.15;0.15;;;12.60;99.90;;;;;;5098209;28;20039;-89
2022/06/22 21:42:16;;;;;;;0.05;0.05;;;12.60;99.90;;;;;;5098576;28;20030;-89
2022/06/22 21:44:48;;;;;;;0.20;0.20;;;12.60;99.90;;;;;;5098313;28;20253;-89
2022/06/22 21:47:39;;;;;;;0.28;0.28;;;12.80;99.90;;;;;;5114357;28;20020;-88
2022/06/22 21:50:32;;;;;;;0.57;0.55;;;12.80;99.90;;;;;;5098226;28;20024;-88
2022/06/22 21:53:23;;;;;;;0.00;0.00;;;12.80;99.90;;;;;;5098006;28;20450;-89
2022/06/22 21:56:10;;;;;;;0.35;0.35;;;12.90;99.90;;;;;;5111968;28;20114;-89
2022/06/22 21:58:57;;;;;;;0.43;0.43;;;12.90;99.90;;;;;;5114970;28;20024;-88
2022/06/22 22:01:55;;;;;;;0.73;0.45;;;12.90;99.90;;;;;;5114859;28;20059;-88
2022/06/22 22:04:51;;;;;;;0.55;0.50;;;13.00;99.90;;;;;;5115966;28;20071;-89
2022/06/22 22:07:17;;;;;;;0.22;0.10;;;13.00;99.90;;;;;;5093212;28;20024;-88
2022/06/22 22:10:09;;;;;;;3.50;0.82;;;12.90;99.90;;;;;;5097690;28;20019;-88
2022/06/22 22:12:39;;;;;;;0.30;0.30;;;12.90;99.90;;;;;;5097970;28;20024;-89
2022/06/22 22:15:09;;;;;;;0.00;0.00;;;12.90;99.90;;;;;;5097861;28;20072;-89
2022/06/22 22:17:59;;;;;;;0.30;0.30;;;13.00;99.90;;;;;;5097938;28;20023;-89
2022/06/22 22:20:29;;;;;;;0.28;0.28;;;13.00;99.90;;;;;;5097620;28;20028;-89
2022/06/22 22:23:00;;;;;;;0.00;0.00;;;13.00;99.90;;;;;;5115435;28;20043;-90
2022/06/22 22:25:34;;;;;;;0.08;0.08;;;13.00;99.90;;;;;;5097552;28;20034;-90
2022/06/22 22:28:07;;;;;;;0.30;0.28;;;13.00;99.90;;;;;;5097349;28;20020;-89
2022/06/22 22:30:36;;;;;;;0.08;0.08;;;13.10;99.90;;;;;;5097456;28;20035;-89
2022/06/22 22:33:03;;;;;;;0.28;0.28;;;13.00;99.90;;;;;;5097448;28;20072;-88
2022/06/22 22:35:38;;;;;;;0.82;0.63;;;13.10;99.90;;;;;;5097314;28;20523;-88
2022/06/22 22:38:07;;;;;;;0.20;0.20;;;13.10;99.90;;;;;;5097136;28;20028;-89
2022/06/22 22:40:39;;;;;;;0.40;0.40;;;13.00;99.90;;;;;;5097239;28;20032;-89
2022/06/22 22:43:07;;;;;;;0.28;0.28;;;13.20;99.90;;;;;;5097090;28;20020;-89
2022/06/22 22:45:34;;;;;;;0.22;0.20;;;13.30;99.90;;;;;;5097635;28;20053;-89
2022/06/22 22:48:04;;;;;;;0.00;0.00;;;13.40;99.90;;;;;;5097461;28;20059;-89
2022/06/22 22:50:36;;;;;;;0.25;0.25;;;13.50;99.90;;;;;;5115167;28;20024;-90
2022/06/22 22:53:06;;;;;;;0.10;0.10;;;13.70;99.90;;;;;;5097032;28;20370;-89
2022/06/22 22:55:34;;;;;;;;;;;13.70;99.90;;;;;;5114497;28;20035;-89
2022/06/22 22:58:24;;;;;;;0.60;0.60;;;13.70;99.90;;;;;;5096790;28;19904;-90
2022/06/22 23:00:50;;;;;;;0.00;0.00;;;13.80;99.90;;;;;;5114117;28;20034;-90
2022/06/22 23:03:18;;;;;;;0.17;0.17;;;13.80;99.90;;;;;;5097053;28;20027;-91
2022/06/22 23:05:47;;;;;;;0.10;0.10;;;13.80;99.90;;;;;;5113715;28;20023;-90
2022/06/22 23:08:13;;;;;;;0.73;0.73;;;13.80;99.90;;;;;;5096899;28;20024;-90
2022/06/22 23:10:50;;;;;;;0.45;0.38;;;13.80;99.90;;;;;;5113889;28;20023;-91
2022/06/22 23:13:18;;;;;;;0.20;0.20;;;13.70;99.90;;;;;;5114922;28;20019;-90
2022/06/22 23:15:47;;;;;;;0.47;0.30;;;13.80;99.90;;;;;;5113881;28;20562;-90
2022/06/22 23:18:22;;;;;;;0.40;0.40;;;13.80;99.90;;;;;;5096950;28;20434;-90
2022/06/22 23:20:51;;;;;;;0.22;0.22;;;13.80;99.90;;;;;;5096696;28;20137;-90
2022/06/22 23:23:21;;;;;;;0.25;0.25;;;13.80;99.90;;;;;;5096384;28;20131;-91
2022/06/22 23:26:11;;;;;;;0.38;0.38;;;13.80;99.90;;;;;;5096848;28;20016;-89
2022/06/22 23:28:51;;;;;;;0.80;0.55;;;13.80;99.90;;;;;;5113445;28;20424;-89
2022/06/22 23:31:34;;;;;;;;;;;13.90;99.90;;;;;;5115136;28;20028;-90
2022/06/22 23:34:20;;;;;;;0.10;0.10;;;13.90;99.90;;;;;;5096710;28;19903;-89
2022/06/22 23:36:45;;;;;;;0.10;0.10;;;13.90;99.90;;;;;;5096556;28;20478;-89
2022/06/22 23:39:22;;;;;;;0.00;0.00;;;13.90;99.90;;;;;;5096708;28;20023;-89
2022/06/22 23:42:04;;;;;;;0.43;0.25;;;13.90;99.90;;;;;;5096589;28;20024;-89
2022/06/22 23:44:32;;;;;;;0.00;0.00;;;14.00;99.90;;;;;;5092142;28;20028;-88
2022/06/22 23:49:49;;;;;;;1.17;1.03;;;14.00;99.90;;;;;;5114971;28;20484;-89
2022/06/22 23:52:23;;;;;;;0.20;0.20;;;14.10;99.90;;;;;;5096486;28;20028;-87
2022/06/22 23:54:50;;;;;;;0.03;0.03;;;14.10;99.90;;;;;;5096408;28;20073;-89
2022/06/22 23:57:34;;;;;;;0.05;0.05;;;14.10;99.90;;;;;;5096470;28;20051;-88
